createdAt,value
2023-05-15T00:01:47.790Z,14.48
2023-05-15T00:04:14.915Z,14.63
2023-05-15T00:06:43.387Z,13.68
2023-05-15T00:09:11.728Z,13.52
2023-05-15T00:11:39.184Z,12.80
2023-05-15T00:14:06.739Z,12.40
2023-05-15T00:16:34.197Z,12.93
2023-05-15T00:19:07.897Z,13.10
2023-05-15T00:24:02.598Z,11.60
2023-05-15T00:26:32.143Z,11.95
2023-05-15T00:28:59.965Z,12.25
2023-05-15T00:31:27.666Z,11.68
2023-05-15T00:33:56.005Z,12.30
2023-05-15T00:36:26.228Z,11.57
2023-05-15T00:38:59.641Z,11.77
2023-05-15T00:41:29.052Z,11.95
2023-05-15T00:43:58.218Z,10.95
2023-05-15T00:46:28.671Z,11.60
2023-05-15T00:48:57.107Z,11.70
2023-05-15T00:51:27.193Z,11.27
2023-05-15T00:53:56.972Z,11.10
2023-05-15T00:56:25.271Z,11.30
2023-05-15T00:58:54.424Z,11.20
2023-05-15T01:01:22.176Z,11.90
2023-05-15T01:03:49.335Z,12.40
2023-05-15T01:06:16.440Z,11.27
2023-05-15T01:08:49.455Z,11.55
2023-05-15T01:11:18.613Z,12.55
2023-05-15T01:13:47.946Z,12.45
2023-05-15T01:16:15.587Z,12.18
2023-05-15T01:18:45.089Z,12.40
2023-05-15T01:21:35.895Z,11.52
2023-05-15T01:24:43.390Z,11.63
2023-05-15T01:27:52.878Z,10.93
2023-05-15T01:30:20.306Z,11.15
2023-05-15T01:33:18.708Z,12.10
2023-05-15T01:36:06.384Z,11.43
2023-05-15T01:38:39.593Z,11.93
2023-05-15T01:41:23.025Z,11.95
2023-05-15T01:43:56.900Z,11.60
2023-05-15T01:46:26.084Z,11.20
2023-05-15T01:48:55.429Z,11.50
2023-05-15T01:51:25.258Z,11.00
2023-05-15T01:53:53.428Z,10.98
2023-05-15T01:56:23.413Z,10.60
2023-05-15T01:58:52.788Z,11.30
2023-05-15T02:01:20.382Z,11.02
2023-05-15T02:03:48.192Z,10.55
2023-05-15T02:06:16.816Z,10.45
2023-05-15T02:08:45.654Z,11.00
2023-05-15T02:11:14.284Z,11.38
2023-05-15T02:13:43.686Z,11.32
2023-05-15T02:16:11.557Z,11.27
2023-05-15T02:18:38.839Z,10.85
2023-05-15T02:21:06.296Z,11.35
2023-05-15T02:23:35.240Z,10.93
2023-05-15T02:26:23.424Z,11.07
2023-05-15T02:29:06.166Z,11.52
2023-05-15T02:31:59.434Z,11.07
2023-05-15T02:35:03.711Z,12.20
2023-05-15T02:37:35.429Z,12.00
2023-05-15T02:40:07.361Z,11.90
2023-05-15T02:42:36.605Z,11.98
2023-05-15T02:45:06.060Z,12.15
2023-05-15T02:47:34.302Z,12.98
2023-05-15T02:50:02.982Z,12.98
2023-05-15T02:52:30.623Z,12.63
2023-05-15T02:54:58.867Z,12.57
2023-05-15T02:57:27.590Z,13.35
2023-05-15T02:59:56.369Z,12.93
2023-05-15T03:02:24.057Z,12.18
2023-05-15T03:04:54.356Z,13.48
2023-05-15T03:07:21.995Z,13.05
2023-05-15T03:09:49.271Z,13.80
2023-05-15T03:12:23.406Z,14.30
2023-05-15T03:14:50.949Z,15.30
2023-05-15T03:17:18.363Z,15.75
2023-05-15T03:19:46.231Z,13.02
2023-05-15T03:22:13.950Z,13.10
2023-05-15T03:24:47.554Z,12.98
2023-05-15T03:27:16.137Z,13.35
2023-05-15T03:29:44.961Z,12.60
2023-05-15T03:32:14.550Z,11.88
2023-05-15T03:34:41.769Z,12.80
2023-05-15T03:37:09.207Z,12.35
2023-05-15T03:39:37.738Z,12.25
2023-05-15T03:42:06.515Z,11.90
2023-05-15T03:44:35.377Z,12.35
2023-05-15T03:47:02.926Z,11.45
2023-05-15T03:49:30.096Z,11.60
2023-05-15T03:51:58.261Z,11.45
2023-05-15T03:54:25.808Z,11.63
2023-05-15T03:56:59.251Z,11.35
2023-05-15T03:59:26.532Z,11.82
2023-05-15T04:02:04.224Z,11.55
2023-05-15T04:04:33.224Z,11.88
2023-05-15T04:07:01.176Z,10.82
2023-05-15T04:09:29.707Z,13.45
2023-05-15T04:12:00.273Z,13.10
2023-05-15T04:14:27.775Z,11.77
2023-05-15T04:16:56.172Z,12.73
2023-05-15T04:19:23.743Z,12.95
2023-05-15T04:21:52.248Z,12.68
2023-05-15T04:24:19.669Z,11.82
2023-05-15T04:26:47.353Z,11.20
2023-05-15T04:29:15.526Z,11.73
2023-05-15T04:31:43.092Z,11.05
2023-05-15T04:34:10.455Z,11.48
2023-05-15T04:36:40.599Z,11.82
2023-05-15T04:39:10.224Z,12.40
2023-05-15T04:41:37.445Z,11.88
2023-05-15T04:44:05.042Z,12.32
2023-05-15T04:46:35.143Z,12.27
2023-05-15T04:49:02.418Z,12.82
2023-05-15T04:51:29.861Z,12.27
2023-05-15T04:53:57.258Z,12.85
2023-05-15T04:56:24.709Z,13.27
2023-05-15T04:58:53.282Z,13.38
2023-05-15T05:01:20.776Z,12.63
2023-05-15T05:03:47.790Z,12.52
2023-05-15T05:06:15.049Z,12.82
2023-05-15T05:08:42.537Z,13.60
2023-05-15T05:11:10.105Z,15.10
2023-05-15T05:13:37.503Z,15.15
2023-05-15T05:16:05.250Z,15.60
2023-05-15T05:18:34.499Z,15.45
2023-05-15T05:21:04.274Z,17.02
2023-05-15T05:23:37.537Z,17.95
2023-05-15T05:26:06.371Z,18.38
2023-05-15T05:28:34.076Z,20.80
2023-05-15T05:31:12.263Z,22.23
2023-05-15T05:33:39.646Z,21.83
2023-05-15T05:36:07.563Z,23.08
2023-05-15T05:38:37.161Z,28.23
2023-05-15T05:41:04.911Z,24.75
2023-05-15T05:43:34.044Z,25.45
2023-05-15T05:46:02.586Z,26.67
2023-05-15T05:48:31.145Z,27.88
2023-05-15T05:50:58.742Z,29.17
2023-05-15T05:53:28.128Z,30.15
2023-05-15T05:55:55.565Z,31.15
2023-05-15T05:58:25.952Z,31.80
2023-05-15T06:00:54.536Z,32.95
2023-05-15T06:03:23.319Z,32.05
2023-05-15T06:05:51.541Z,33.03
2023-05-15T06:08:18.980Z,33.15
2023-05-15T06:10:46.553Z,33.58
2023-05-15T06:13:15.241Z,32.88
2023-05-15T06:15:42.945Z,32.00
2023-05-15T06:18:10.515Z,34.08
2023-05-15T06:20:38.547Z,33.45
2023-05-15T06:23:06.044Z,35.83
2023-05-15T06:25:33.223Z,35.45
2023-05-15T06:28:01.127Z,35.55
2023-05-15T06:30:28.599Z,36.08
2023-05-15T06:32:56.220Z,33.10
2023-05-15T06:35:26.803Z,33.42
2023-05-15T06:37:54.933Z,35.25
2023-05-15T06:40:25.258Z,34.25
2023-05-15T06:42:53.065Z,31.80
2023-05-15T06:45:20.576Z,31.05
2023-05-15T06:47:48.040Z,33.22
2023-05-15T06:50:15.549Z,33.05
2023-05-15T06:52:43.907Z,33.08
2023-05-15T06:55:13.467Z,33.70
2023-05-15T06:57:41.827Z,31.85
2023-05-15T07:00:10.987Z,31.90
2023-05-15T07:02:38.355Z,29.60
2023-05-15T07:05:07.117Z,29.80
2023-05-15T07:07:34.744Z,30.75
2023-05-15T07:10:02.342Z,30.15
2023-05-15T07:12:29.921Z,28.45
2023-05-15T07:15:03.474Z,28.63
2023-05-15T07:17:33.854Z,28.10
2023-05-15T07:20:01.382Z,28.60
2023-05-15T07:22:29.473Z,27.92
2023-05-15T07:25:02.936Z,27.38
2023-05-15T07:27:31.393Z,26.88
2023-05-15T07:29:58.776Z,27.27
2023-05-15T07:32:26.246Z,25.92
2023-05-15T07:34:53.556Z,27.13
2023-05-15T07:37:21.228Z,25.35
2023-05-15T07:39:48.638Z,24.00
2023-05-15T07:42:18.139Z,24.38
2023-05-15T07:44:48.766Z,24.65
2023-05-15T07:47:17.310Z,24.85
2023-05-15T07:49:44.687Z,23.83
2023-05-15T07:52:12.345Z,24.83
2023-05-15T07:54:42.410Z,25.73
2023-05-15T07:57:15.863Z,33.15
2023-05-15T07:59:43.374Z,24.08
2023-05-15T08:02:10.782Z,22.70
2023-05-15T08:04:38.265Z,22.67
2023-05-15T08:07:07.507Z,21.70
2023-05-15T08:09:35.138Z,22.15
2023-05-15T08:12:21.551Z,25.92
2023-05-15T08:14:56.665Z,23.52
2023-05-15T08:17:25.518Z,24.77
2023-05-15T08:19:54.291Z,24.58
2023-05-15T08:22:21.468Z,21.77
2023-05-15T08:24:49.423Z,19.75
2023-05-15T08:27:16.729Z,18.67
2023-05-15T08:29:45.498Z,20.23
2023-05-15T08:32:12.868Z,20.08
2023-05-15T08:34:40.430Z,20.73
2023-05-15T08:37:07.947Z,19.25
2023-05-15T08:39:35.279Z,18.88
2023-05-15T08:42:35.511Z,20.10
2023-05-15T08:45:03.596Z,20.88
2023-05-15T08:47:36.090Z,20.48
2023-05-15T08:50:07.149Z,20.85
2023-05-15T08:52:35.140Z,19.45
2023-05-15T08:55:04.219Z,18.85
2023-05-15T08:57:33.951Z,19.60
2023-05-15T09:00:09.205Z,18.58
2023-05-15T09:02:37.691Z,18.77
2023-05-15T09:05:08.582Z,18.00
2023-05-15T09:07:36.483Z,17.92
2023-05-15T09:10:11.026Z,16.88
2023-05-15T09:12:44.096Z,15.38
2023-05-15T09:15:18.147Z,16.67
2023-05-15T09:17:46.585Z,14.10
2023-05-15T09:20:35.417Z,13.70
2023-05-15T09:23:05.481Z,15.07
2023-05-15T09:25:44.549Z,11.90
2023-05-15T09:28:34.152Z,14.25
2023-05-15T09:31:04.237Z,9.73
2023-05-15T09:33:39.487Z,9.90
2023-05-15T09:36:09.289Z,9.02
2023-05-15T09:38:48.601Z,9.65
2023-05-15T09:41:26.808Z,10.88
2023-05-15T09:43:57.040Z,8.30
2023-05-15T09:46:24.702Z,7.03
2023-05-15T09:48:56.391Z,8.68
2023-05-15T09:51:24.052Z,8.10
2023-05-15T09:53:54.563Z,8.77
2023-05-15T09:56:22.803Z,8.20
2023-05-15T09:58:54.952Z,8.75
2023-05-15T10:01:24.277Z,8.52
2023-05-15T10:04:02.035Z,8.43
2023-05-15T10:06:37.339Z,8.15
2023-05-15T10:09:05.511Z,8.73
2023-05-15T10:11:40.922Z,7.72
2023-05-15T10:14:11.390Z,8.13
2023-05-15T10:16:40.903Z,8.93
2023-05-15T10:19:18.906Z,8.65
2023-05-15T10:21:48.582Z,8.63
2023-05-15T10:24:19.702Z,9.65
2023-05-15T10:26:48.629Z,9.10
2023-05-15T10:29:19.669Z,9.45
2023-05-15T10:31:49.386Z,8.27
2023-05-15T10:34:19.338Z,9.00
2023-05-15T10:36:50.617Z,8.73
2023-05-15T10:39:21.016Z,8.13
2023-05-15T10:41:51.254Z,8.55
2023-05-15T10:44:19.826Z,9.27
2023-05-15T10:46:48.222Z,8.38
2023-05-15T10:49:15.864Z,10.00
2023-05-15T10:51:43.394Z,7.45
2023-05-15T10:54:10.751Z,8.00
2023-05-15T10:56:40.308Z,10.60
2023-05-15T10:59:11.749Z,5.20
2023-05-15T11:01:41.174Z,6.10
2023-05-15T11:04:19.069Z,6.15
2023-05-15T11:06:50.959Z,6.80
2023-05-15T11:09:28.100Z,7.97
2023-05-15T11:12:20.780Z,8.93
2023-05-15T11:14:57.383Z,7.82
2023-05-15T11:17:24.948Z,3.25
2023-05-15T11:19:53.305Z,4.07
2023-05-15T11:22:23.300Z,4.82
2023-05-15T11:25:10.771Z,4.97
2023-05-15T11:27:42.028Z,4.40
2023-05-15T11:30:22.738Z,5.07
2023-05-15T11:33:11.624Z,4.60
2023-05-15T11:35:40.441Z,4.47
2023-05-15T11:38:15.344Z,4.32
2023-05-15T11:40:58.768Z,4.03
2023-05-15T11:43:32.587Z,5.70
2023-05-15T11:46:12.986Z,4.82
2023-05-15T11:48:45.002Z,4.70
2023-05-15T11:51:21.604Z,3.50
2023-05-15T11:53:54.118Z,3.80
2023-05-15T11:56:24.066Z,4.10
2023-05-15T11:59:01.599Z,3.38
2023-05-15T12:01:48.654Z,4.40
2023-05-15T12:04:17.124Z,3.85
2023-05-15T12:06:47.694Z,3.67
2023-05-15T12:09:17.116Z,3.30
2023-05-15T12:11:54.853Z,4.90
2023-05-15T12:14:30.111Z,5.65
2023-05-15T12:17:07.805Z,4.63
2023-05-15T12:19:37.625Z,5.68
2023-05-15T12:22:08.740Z,4.47
2023-05-15T12:24:40.150Z,3.95
2023-05-15T12:27:10.274Z,2.78
2023-05-15T12:29:38.821Z,3.00
2023-05-15T12:32:08.514Z,2.60
2023-05-15T12:34:37.512Z,3.90
2023-05-15T12:37:07.067Z,4.72
2023-05-15T12:39:34.557Z,3.65
2023-05-15T12:42:01.888Z,3.03
2023-05-15T12:44:32.299Z,3.20
2023-05-15T12:46:59.774Z,3.00
2023-05-15T12:49:28.517Z,2.95
2023-05-15T12:51:55.927Z,3.20
2023-05-15T12:54:24.574Z,2.58
2023-05-15T12:56:52.013Z,3.35
2023-05-15T12:59:20.355Z,2.83
2023-05-15T13:01:47.805Z,3.17
2023-05-15T13:04:16.801Z,3.00
2023-05-15T13:06:46.860Z,2.85
2023-05-15T13:09:21.552Z,3.03
2023-05-15T13:11:49.255Z,3.80
2023-05-15T13:14:21.461Z,5.88
2023-05-15T13:16:48.826Z,4.57
2023-05-15T13:19:17.112Z,4.50
2023-05-15T13:21:46.074Z,4.38
2023-05-15T13:24:13.755Z,14.02
2023-05-15T13:26:41.813Z,4.85
2023-05-15T13:29:09.206Z,5.05
2023-05-15T13:31:36.712Z,3.55
2023-05-15T13:34:04.089Z,4.78
2023-05-15T13:36:31.819Z,4.82
2023-05-15T13:39:00.023Z,19.83
2023-05-15T13:41:27.493Z,2.50
2023-05-15T13:43:54.943Z,2.20
2023-05-15T13:46:23.530Z,2.88
2023-05-15T13:48:51.067Z,3.00
2023-05-15T13:51:19.402Z,5.03
2023-05-15T13:53:46.710Z,3.22
2023-05-15T13:56:14.343Z,3.10
2023-05-15T13:58:42.775Z,7.07
2023-05-15T14:01:10.370Z,15.93
2023-05-15T14:03:37.596Z,5.18
2023-05-15T14:06:06.230Z,17.98
2023-05-15T14:08:34.203Z,6.60
2023-05-15T14:11:02.025Z,5.07
2023-05-15T14:13:33.446Z,5.50
2023-05-15T14:16:01.055Z,5.50
2023-05-15T14:18:31.798Z,4.82
2023-05-15T14:20:59.549Z,3.70
2023-05-15T14:23:27.106Z,3.80
2023-05-15T14:25:54.426Z,3.10
2023-05-15T14:28:22.035Z,3.70
2023-05-15T14:30:49.347Z,3.10
2023-05-15T14:33:16.829Z,2.50
2023-05-15T14:35:44.357Z,2.65
2023-05-15T14:38:12.634Z,3.35
2023-05-15T14:40:43.401Z,5.05
2023-05-15T14:43:12.229Z,4.05
2023-05-15T14:45:39.761Z,3.40
2023-05-15T14:48:07.241Z,5.57
2023-05-15T14:50:34.650Z,4.55
2023-05-15T14:53:02.184Z,3.95
2023-05-15T14:55:29.562Z,5.13
2023-05-15T14:57:58.502Z,4.72
2023-05-15T15:00:26.321Z,4.25
2023-05-15T15:02:54.328Z,4.10
2023-05-15T15:05:23.297Z,6.72
2023-05-15T15:08:11.183Z,3.65
2023-05-15T15:10:40.852Z,4.85
2023-05-15T15:13:10.347Z,3.90
2023-05-15T15:15:38.003Z,4.30
2023-05-15T15:18:05.331Z,3.63
2023-05-15T15:20:33.035Z,3.90
2023-05-15T15:23:00.137Z,3.88
2023-05-15T15:25:28.482Z,4.47
2023-05-15T15:27:58.116Z,5.53
2023-05-15T15:30:26.040Z,3.55
2023-05-15T15:32:56.099Z,4.63
2023-05-15T15:35:24.853Z,4.32
2023-05-15T15:37:53.557Z,4.28
2023-05-15T15:40:24.335Z,3.80
2023-05-15T15:42:54.495Z,3.70
2023-05-15T15:45:21.743Z,2.88
2023-05-15T15:47:49.289Z,2.92
2023-05-15T15:50:17.599Z,3.55
2023-05-15T15:52:45.149Z,2.70
2023-05-15T15:55:12.537Z,2.80
2023-05-15T15:57:40.119Z,2.90
2023-05-15T16:00:10.044Z,2.45
2023-05-15T16:02:37.583Z,2.78
2023-05-15T16:05:05.263Z,2.72
2023-05-15T16:07:39.524Z,2.17
2023-05-15T16:10:13.122Z,2.30
2023-05-15T16:12:42.790Z,2.53
2023-05-15T16:17:42.223Z,9.68
2023-05-15T16:20:11.633Z,3.85
2023-05-15T16:22:41.989Z,2.90
2023-05-15T16:25:15.360Z,9.27
2023-05-15T16:27:42.838Z,4.03
2023-05-15T16:30:11.840Z,3.33
2023-05-15T16:32:39.928Z,3.40
2023-05-15T16:35:08.017Z,3.90
2023-05-15T16:37:35.227Z,4.20
2023-05-15T16:40:03.170Z,4.18
2023-05-15T16:42:34.943Z,4.15
2023-05-15T16:45:02.183Z,4.50
2023-05-15T16:47:29.683Z,4.47
2023-05-15T16:49:58.204Z,5.38
2023-05-15T16:52:25.691Z,4.55
2023-05-15T16:54:55.155Z,5.40
2023-05-15T16:57:23.581Z,4.00
2023-05-15T16:59:51.118Z,6.75
2023-05-15T17:02:19.646Z,4.45
2023-05-15T17:04:53.594Z,4.65
2023-05-15T17:07:21.758Z,4.60
2023-05-15T17:09:50.046Z,3.88
2023-05-15T17:12:17.596Z,4.75
2023-05-15T17:14:45.161Z,7.10
2023-05-15T17:17:15.120Z,4.82
2023-05-15T17:19:42.452Z,7.03
2023-05-15T17:22:09.906Z,7.00
2023-05-15T17:24:50.182Z,6.93
2023-05-15T17:27:20.805Z,3.95
2023-05-15T17:29:49.517Z,6.07
2023-05-15T17:32:18.286Z,7.78
2023-05-15T17:34:46.427Z,5.25
2023-05-15T17:37:15.154Z,5.22
2023-05-15T17:39:43.168Z,5.05
2023-05-15T17:42:11.906Z,5.05
2023-05-15T17:44:39.507Z,4.38
2023-05-15T17:47:12.859Z,3.97
2023-05-15T17:49:42.352Z,4.47
2023-05-15T17:52:10.939Z,5.60
2023-05-15T17:54:38.217Z,7.07
2023-05-15T17:57:06.739Z,7.38
2023-05-15T17:59:34.504Z,5.18
2023-05-15T18:02:03.273Z,3.65
2023-05-15T18:04:30.729Z,3.17
2023-05-15T18:06:59.302Z,7.72
2023-05-15T18:09:28.695Z,8.82
2023-05-15T18:11:58.228Z,8.60
2023-05-15T18:14:25.727Z,7.35
2023-05-15T18:16:53.026Z,4.63
2023-05-15T18:19:20.761Z,5.05
2023-05-15T18:21:48.528Z,4.60
2023-05-15T18:24:17.155Z,4.72
2023-05-15T18:26:45.469Z,5.32
2023-05-15T18:29:13.116Z,16.45
2023-05-15T18:31:40.356Z,9.60
2023-05-15T18:34:08.776Z,5.65
2023-05-15T18:36:36.251Z,4.13
2023-05-15T18:39:04.068Z,4.32
2023-05-15T18:41:31.180Z,6.32
2023-05-15T18:43:59.712Z,8.63
2023-05-15T18:46:28.616Z,5.35
2023-05-15T18:48:56.308Z,5.13
2023-05-15T18:51:24.512Z,4.38
2023-05-15T18:53:52.255Z,4.20
2023-05-15T18:56:19.548Z,3.97
2023-05-15T18:58:47.697Z,3.90
2023-05-15T19:01:15.988Z,3.97
2023-05-15T19:03:43.261Z,3.90
2023-05-15T19:06:13.715Z,4.07
2023-05-15T19:08:42.992Z,4.30
2023-05-15T19:11:10.385Z,4.90
2023-05-15T19:13:38.784Z,4.35
2023-05-15T19:16:08.668Z,4.53
2023-05-15T19:18:35.969Z,4.65
2023-05-15T19:21:05.320Z,4.82
2023-05-15T19:23:32.968Z,4.68
2023-05-15T19:26:00.389Z,4.90
2023-05-15T19:28:28.238Z,4.85
2023-05-15T19:30:55.737Z,5.32
2023-05-15T19:33:23.441Z,5.47
2023-05-15T19:35:50.573Z,5.75
2023-05-15T19:38:19.481Z,5.90
2023-05-15T19:40:46.993Z,5.60
2023-05-15T19:43:15.681Z,5.30
2023-05-15T19:45:43.787Z,5.93
2023-05-15T19:48:12.856Z,5.95
2023-05-15T19:50:40.586Z,6.00
2023-05-15T19:53:14.296Z,8.38
2023-05-15T19:58:11.245Z,7.03
2023-05-15T20:00:38.664Z,6.07
2023-05-15T20:03:06.128Z,6.28
2023-05-15T20:05:33.913Z,6.38
2023-05-15T20:08:01.332Z,6.65
2023-05-15T20:10:28.789Z,6.10
2023-05-15T20:12:56.368Z,5.78
2023-05-15T20:15:25.876Z,5.97
2023-05-15T20:17:54.003Z,5.75
2023-05-15T20:20:33.140Z,5.93
2023-05-15T20:23:01.427Z,5.45
2023-05-15T20:25:29.815Z,5.50
2023-05-15T20:28:05.565Z,5.32
2023-05-15T20:30:33.174Z,5.63
2023-05-15T20:33:00.782Z,5.57
2023-05-15T20:35:30.016Z,5.13
2023-05-15T20:38:00.170Z,5.68
2023-05-15T20:40:27.937Z,5.47
2023-05-15T20:43:07.717Z,6.00
2023-05-15T20:45:37.279Z,5.63
2023-05-15T20:48:05.845Z,5.50
2023-05-15T20:50:33.139Z,6.00
2023-05-15T20:53:00.648Z,6.35
2023-05-15T20:55:29.148Z,6.00
2023-05-15T20:57:56.661Z,6.30
2023-05-15T21:00:24.255Z,5.70
2023-05-15T21:02:52.125Z,5.65
2023-05-15T21:05:19.432Z,5.80
2023-05-15T21:07:46.912Z,6.05
2023-05-15T21:10:14.371Z,13.60
2023-05-15T21:12:42.882Z,7.28
2023-05-15T21:15:10.494Z,6.65
2023-05-15T21:17:37.813Z,6.40
2023-05-15T21:20:05.677Z,6.50
2023-05-15T21:22:33.598Z,9.55
2023-05-15T21:25:01.275Z,8.77
2023-05-15T21:27:28.680Z,9.38
2023-05-15T21:30:04.581Z,10.00
2023-05-15T21:32:32.918Z,7.60
2023-05-15T21:35:02.320Z,7.43
2023-05-15T21:37:29.806Z,7.22
2023-05-15T21:39:58.194Z,7.72
2023-05-15T21:42:26.743Z,7.50
2023-05-15T21:45:00.330Z,7.05
2023-05-15T21:47:27.701Z,8.02
2023-05-15T21:49:55.099Z,7.60
2023-05-15T21:52:22.861Z,7.72
2023-05-15T21:54:50.340Z,7.95
2023-05-15T21:57:24.840Z,7.70
2023-05-15T21:59:53.199Z,8.25
2023-05-15T22:02:22.829Z,7.78
2023-05-15T22:04:50.166Z,8.57
2023-05-15T22:07:17.830Z,8.05
2023-05-15T22:09:45.383Z,8.18
2023-05-15T22:12:12.586Z,8.10
2023-05-15T22:14:54.522Z,8.02
2023-05-15T22:17:30.875Z,8.05
2023-05-15T22:20:07.929Z,9.27
2023-05-15T22:22:36.260Z,7.85
2023-05-15T22:25:04.096Z,9.75
2023-05-15T22:27:32.146Z,13.55
2023-05-15T22:29:59.870Z,10.57
2023-05-15T22:32:27.112Z,11.05
2023-05-15T22:34:56.119Z,10.82
2023-05-15T22:37:25.501Z,13.63
2023-05-15T22:39:59.002Z,9.10
2023-05-15T22:42:28.375Z,11.15
2023-05-15T22:44:57.741Z,10.75
2023-05-15T22:47:38.430Z,10.45
2023-05-15T22:50:06.253Z,9.95
2023-05-15T22:52:33.801Z,10.15
2023-05-15T22:55:01.158Z,10.30
2023-05-15T22:57:29.326Z,12.38
2023-05-15T22:59:56.702Z,10.32
2023-05-15T23:02:25.118Z,9.93
2023-05-15T23:04:53.553Z,9.88
2023-05-15T23:07:21.002Z,9.68
2023-05-15T23:09:48.496Z,9.32
2023-05-15T23:12:15.919Z,9.23
2023-05-15T23:14:45.503Z,9.15
2023-05-15T23:17:13.020Z,8.73
2023-05-15T23:19:41.067Z,8.70
2023-05-15T23:22:12.719Z,8.52
2023-05-15T23:24:40.935Z,9.27
2023-05-15T23:27:09.429Z,8.85
2023-05-15T23:29:36.944Z,9.10
2023-05-15T23:32:07.644Z,9.07
2023-05-15T23:34:34.829Z,9.18
2023-05-15T23:37:02.512Z,8.43
2023-05-15T23:39:29.774Z,8.45
2023-05-15T23:41:57.566Z,9.07
2023-05-15T23:44:24.686Z,9.02
2023-05-15T23:46:52.064Z,9.68
2023-05-15T23:49:19.552Z,9.35
2023-05-15T23:51:47.145Z,9.68
2023-05-15T23:54:14.494Z,10.05
2023-05-15T23:56:41.927Z,10.27
2023-05-15T23:59:09.458Z,10.88
